sensor_id;sensor_type;location;lat;lon;timestamp;temperature;humidity
40622;DHT22;26324;52.040;11.528;2022-08-04T00:01:48;22.90;55.50
40622;DHT22;26324;52.040;11.528;2022-08-04T00:04:33;22.80;55.60
40622;DHT22;26324;52.040;11.528;2022-08-04T00:07:08;22.80;56.00
40622;DHT22;26324;52.040;11.528;2022-08-04T00:09:54;22.70;55.40
40622;DHT22;26324;52.040;11.528;2022-08-04T00:12:25;22.70;55.40
40622;DHT22;26324;52.040;11.528;2022-08-04T00:14:55;22.60;55.60
40622;DHT22;26324;52.040;11.528;2022-08-04T00:17:26;22.50;55.70
40622;DHT22;26324;52.040;11.528;2022-08-04T00:19:55;22.50;56.00
40622;DHT22;26324;52.040;11.528;2022-08-04T00:22:30;22.50;55.90
40622;DHT22;26324;52.040;11.528;2022-08-04T00:24:56;22.40;56.00
40622;DHT22;26324;52.040;11.528;2022-08-04T00:27:21;22.30;56.50
40622;DHT22;26324;52.040;11.528;2022-08-04T00:29:47;22.30;57.00
40622;DHT22;26324;52.040;11.528;2022-08-04T00:32:13;22.20;57.90
40622;DHT22;26324;52.040;11.528;2022-08-04T00:34:39;22.10;58.80
40622;DHT22;26324;52.040;11.528;2022-08-04T00:37:05;22.10;58.20
40622;DHT22;26324;52.040;11.528;2022-08-04T00:39:31;22.10;58.40
40622;DHT22;26324;52.040;11.528;2022-08-04T00:45:12;22.10;57.90
40622;DHT22;26324;52.040;11.528;2022-08-04T00:48:01;22.10;58.50
40622;DHT22;26324;52.040;11.528;2022-08-04T00:53:30;22.00;57.60
40622;DHT22;26324;52.040;11.528;2022-08-04T00:59:34;21.90;57.70
40622;DHT22;26324;52.040;11.528;2022-08-04T01:02:24;21.90;57.80
40622;DHT22;26324;52.040;11.528;2022-08-04T01:05:19;21.80;58.00
40622;DHT22;26324;52.040;11.528;2022-08-04T01:10:47;21.70;58.00
40622;DHT22;26324;52.040;11.528;2022-08-04T01:13:24;21.70;59.10
40622;DHT22;26324;52.040;11.528;2022-08-04T01:16:03;21.60;59.50
40622;DHT22;26324;52.040;11.528;2022-08-04T01:27:05;21.50;59.70
40622;DHT22;26324;52.040;11.528;2022-08-04T01:29:39;21.40;60.20
40622;DHT22;26324;52.040;11.528;2022-08-04T01:35:03;21.40;60.30
40622;DHT22;26324;52.040;11.528;2022-08-04T01:40:14;21.40;59.40
40622;DHT22;26324;52.040;11.528;2022-08-04T01:42:40;21.40;59.50
40622;DHT22;26324;52.040;11.528;2022-08-04T01:45:09;21.40;59.30
40622;DHT22;26324;52.040;11.528;2022-08-04T01:47:39;21.30;59.40
40622;DHT22;26324;52.040;11.528;2022-08-04T01:50:08;21.30;59.20
40622;DHT22;26324;52.040;11.528;2022-08-04T01:52:36;21.10;59.50
40622;DHT22;26324;52.040;11.528;2022-08-04T01:55:04;21.00;59.80
40622;DHT22;26324;52.040;11.528;2022-08-04T01:57:32;21.00;59.80
40622;DHT22;26324;52.040;11.528;2022-08-04T02:00:24;20.80;60.20
40622;DHT22;26324;52.040;11.528;2022-08-04T02:02:52;20.70;60.50
40622;DHT22;26324;52.040;11.528;2022-08-04T02:05:21;20.60;60.10
40622;DHT22;26324;52.040;11.528;2022-08-04T02:08:01;20.60;60.40
40622;DHT22;26324;52.040;11.528;2022-08-04T02:13:09;20.60;60.60
40622;DHT22;26324;52.040;11.528;2022-08-04T02:18:33;20.60;61.00
40622;DHT22;26324;52.040;11.528;2022-08-04T02:21:01;20.60;60.90
40622;DHT22;26324;52.040;11.528;2022-08-04T02:23:34;20.60;60.70
40622;DHT22;26324;52.040;11.528;2022-08-04T02:26:03;20.50;60.90
40622;DHT22;26324;52.040;11.528;2022-08-04T02:34:24;20.30;61.80
40622;DHT22;26324;52.040;11.528;2022-08-04T02:36:52;20.30;60.90
40622;DHT22;26324;52.040;11.528;2022-08-04T02:39:19;20.30;61.00
40622;DHT22;26324;52.040;11.528;2022-08-04T02:41:47;20.30;61.10
40622;DHT22;26324;52.040;11.528;2022-08-04T02:44:21;20.20;62.10
40622;DHT22;26324;52.040;11.528;2022-08-04T02:46:50;20.20;62.10
40622;DHT22;26324;52.040;11.528;2022-08-04T02:49:17;20.20;61.30
40622;DHT22;26324;52.040;11.528;2022-08-04T02:51:49;20.30;60.40
40622;DHT22;26324;52.040;11.528;2022-08-04T02:54:27;20.20;60.80
40622;DHT22;26324;52.040;11.528;2022-08-04T02:56:56;20.10;61.30
40622;DHT22;26324;52.040;11.528;2022-08-04T02:59:25;20.10;60.90
40622;DHT22;26324;52.040;11.528;2022-08-04T03:01:54;20.10;61.50
40622;DHT22;26324;52.040;11.528;2022-08-04T03:10:00;20.10;62.30
40622;DHT22;26324;52.040;11.528;2022-08-04T03:12:56;20.10;62.30
40622;DHT22;26324;52.040;11.528;2022-08-04T03:15:58;20.00;62.00
40622;DHT22;26324;52.040;11.528;2022-08-04T03:18:51;20.00;62.30
40622;DHT22;26324;52.040;11.528;2022-08-04T03:45:52;20.00;62.80
40622;DHT22;26324;52.040;11.528;2022-08-04T04:00:16;20.00;63.00
40622;DHT22;26324;52.040;11.528;2022-08-04T04:06:08;20.00;62.60
40622;DHT22;26324;52.040;11.528;2022-08-04T04:17:23;19.80;62.30
40622;DHT22;26324;52.040;11.528;2022-08-04T04:25:46;19.70;62.50
40622;DHT22;26324;52.040;11.528;2022-08-04T04:45:41;20.00;63.90
40622;DHT22;26324;52.040;11.528;2022-08-04T04:51:32;20.10;64.00
40622;DHT22;26324;52.040;11.528;2022-08-04T04:56:44;20.20;64.00
40622;DHT22;26324;52.040;11.528;2022-08-04T04:59:18;20.20;64.50
40622;DHT22;26324;52.040;11.528;2022-08-04T05:02:22;20.30;64.30
40622;DHT22;26324;52.040;11.528;2022-08-04T05:05:14;20.40;63.40
40622;DHT22;26324;52.040;11.528;2022-08-04T05:08:19;20.60;62.50
40622;DHT22;26324;52.040;11.528;2022-08-04T05:17:26;21.10;61.90
40622;DHT22;26324;52.040;11.528;2022-08-04T05:22:04;21.40;59.80
40622;DHT22;26324;52.040;11.528;2022-08-04T05:24:36;21.60;60.40
40622;DHT22;26324;52.040;11.528;2022-08-04T05:27:13;21.80;59.20
40622;DHT22;26324;52.040;11.528;2022-08-04T05:29:50;22.00;58.90
40622;DHT22;26324;52.040;11.528;2022-08-04T05:32:20;22.10;58.30
40622;DHT22;26324;52.040;11.528;2022-08-04T05:35:08;22.40;58.40
40622;DHT22;26324;52.040;11.528;2022-08-04T05:37:37;22.40;58.10
40622;DHT22;26324;52.040;11.528;2022-08-04T05:40:05;22.60;57.60
40622;DHT22;26324;52.040;11.528;2022-08-04T05:42:38;22.60;57.90
40622;DHT22;26324;52.040;11.528;2022-08-04T05:45:06;22.80;57.40
40622;DHT22;26324;52.040;11.528;2022-08-04T05:47:32;22.90;57.30
40622;DHT22;26324;52.040;11.528;2022-08-04T05:50:00;23.00;56.60
40622;DHT22;26324;52.040;11.528;2022-08-04T05:52:27;23.20;56.10
40622;DHT22;26324;52.040;11.528;2022-08-04T05:54:54;23.30;55.40
40622;DHT22;26324;52.040;11.528;2022-08-04T05:57:20;23.50;54.80
40622;DHT22;26324;52.040;11.528;2022-08-04T05:59:48;23.70;54.10
40622;DHT22;26324;52.040;11.528;2022-08-04T06:02:16;23.70;53.80
40622;DHT22;26324;52.040;11.528;2022-08-04T06:04:44;23.90;53.40
40622;DHT22;26324;52.040;11.528;2022-08-04T06:07:12;24.00;52.70
40622;DHT22;26324;52.040;11.528;2022-08-04T06:09:39;24.10;52.90
40622;DHT22;26324;52.040;11.528;2022-08-04T06:12:12;24.30;53.70
40622;DHT22;26324;52.040;11.528;2022-08-04T06:14:42;24.50;52.90
40622;DHT22;26324;52.040;11.528;2022-08-04T06:17:09;24.60;51.70
40622;DHT22;26324;52.040;11.528;2022-08-04T06:19:39;24.70;49.90
40622;DHT22;26324;52.040;11.528;2022-08-04T06:22:08;24.90;49.70
40622;DHT22;26324;52.040;11.528;2022-08-04T06:24:36;25.10;49.00
40622;DHT22;26324;52.040;11.528;2022-08-04T06:27:04;25.30;48.70
40622;DHT22;26324;52.040;11.528;2022-08-04T06:29:31;25.50;49.20
40622;DHT22;26324;52.040;11.528;2022-08-04T06:32:04;25.60;48.90
40622;DHT22;26324;52.040;11.528;2022-08-04T06:34:53;25.80;47.70
40622;DHT22;26324;52.040;11.528;2022-08-04T06:37:20;26.00;47.50
40622;DHT22;26324;52.040;11.528;2022-08-04T06:39:48;26.10;47.00
40622;DHT22;26324;52.040;11.528;2022-08-04T06:42:16;26.40;46.20
40622;DHT22;26324;52.040;11.528;2022-08-04T06:44:43;26.50;46.00
40622;DHT22;26324;52.040;11.528;2022-08-04T06:47:11;26.60;45.70
40622;DHT22;26324;52.040;11.528;2022-08-04T06:49:38;26.80;45.80
40622;DHT22;26324;52.040;11.528;2022-08-04T06:52:04;26.90;45.40
40622;DHT22;26324;52.040;11.528;2022-08-04T06:54:30;27.10;45.00
40622;DHT22;26324;52.040;11.528;2022-08-04T06:56:57;27.30;44.00
40622;DHT22;26324;52.040;11.528;2022-08-04T06:59:24;27.50;43.90
40622;DHT22;26324;52.040;11.528;2022-08-04T07:01:51;27.60;45.30
40622;DHT22;26324;52.040;11.528;2022-08-04T07:04:18;27.70;43.60
40622;DHT22;26324;52.040;11.528;2022-08-04T07:06:43;27.90;42.90
40622;DHT22;26324;52.040;11.528;2022-08-04T07:09:09;28.10;42.70
40622;DHT22;26324;52.040;11.528;2022-08-04T07:11:35;28.20;41.50
40622;DHT22;26324;52.040;11.528;2022-08-04T07:14:02;28.40;41.40
40622;DHT22;26324;52.040;11.528;2022-08-04T07:16:29;28.40;40.80
40622;DHT22;26324;52.040;11.528;2022-08-04T07:18:56;28.60;40.90
40622;DHT22;26324;52.040;11.528;2022-08-04T07:21:22;28.80;41.00
40622;DHT22;26324;52.040;11.528;2022-08-04T07:23:51;28.90;40.80
40622;DHT22;26324;52.040;11.528;2022-08-04T07:26:18;29.10;40.10
40622;DHT22;26324;52.040;11.528;2022-08-04T07:28:44;29.40;39.80
40622;DHT22;26324;52.040;11.528;2022-08-04T07:31:15;29.50;39.50
40622;DHT22;26324;52.040;11.528;2022-08-04T07:33:43;29.60;39.60
40622;DHT22;26324;52.040;11.528;2022-08-04T07:36:08;29.60;37.90
40622;DHT22;26324;52.040;11.528;2022-08-04T07:38:34;29.80;37.90
40622;DHT22;26324;52.040;11.528;2022-08-04T07:41:00;29.90;36.90
40622;DHT22;26324;52.040;11.528;2022-08-04T07:43:28;30.00;36.20
40622;DHT22;26324;52.040;11.528;2022-08-04T07:45:56;30.20;35.40
40622;DHT22;26324;52.040;11.528;2022-08-04T07:48:21;30.30;35.80
40622;DHT22;26324;52.040;11.528;2022-08-04T07:50:49;30.40;34.10
40622;DHT22;26324;52.040;11.528;2022-08-04T07:53:15;30.60;35.10
40622;DHT22;26324;52.040;11.528;2022-08-04T07:55:43;30.70;34.50
40622;DHT22;26324;52.040;11.528;2022-08-04T07:58:08;31.00;32.60
40622;DHT22;26324;52.040;11.528;2022-08-04T08:00:34;31.20;32.20
40622;DHT22;26324;52.040;11.528;2022-08-04T08:03:00;31.40;31.10
40622;DHT22;26324;52.040;11.528;2022-08-04T08:05:27;31.50;32.80
40622;DHT22;26324;52.040;11.528;2022-08-04T08:07:54;31.60;30.00
40622;DHT22;26324;52.040;11.528;2022-08-04T08:10:22;31.80;30.10
40622;DHT22;26324;52.040;11.528;2022-08-04T08:12:48;31.90;30.60
40622;DHT22;26324;52.040;11.528;2022-08-04T08:15:14;32.10;29.80
40622;DHT22;26324;52.040;11.528;2022-08-04T08:17:40;32.20;28.90
40622;DHT22;26324;52.040;11.528;2022-08-04T08:20:07;32.30;30.70
40622;DHT22;26324;52.040;11.528;2022-08-04T08:22:33;32.30;29.00
40622;DHT22;26324;52.040;11.528;2022-08-04T08:24:58;32.50;28.80
40622;DHT22;26324;52.040;11.528;2022-08-04T08:27:24;32.60;28.60
40622;DHT22;26324;52.040;11.528;2022-08-04T08:29:50;32.60;30.20
40622;DHT22;26324;52.040;11.528;2022-08-04T08:32:16;32.80;29.80
40622;DHT22;26324;52.040;11.528;2022-08-04T08:34:42;32.80;28.80
40622;DHT22;26324;52.040;11.528;2022-08-04T08:37:24;32.80;28.70
40622;DHT22;26324;52.040;11.528;2022-08-04T08:39:56;32.70;28.80
40622;DHT22;26324;52.040;11.528;2022-08-04T08:48:19;33.50;27.40
40622;DHT22;26324;52.040;11.528;2022-08-04T09:00:06;34.10;27.10
40622;DHT22;26324;52.040;11.528;2022-08-04T09:11:07;34.40;25.60
40622;DHT22;26324;52.040;11.528;2022-08-04T09:17:02;34.70;25.90
40622;DHT22;26324;52.040;11.528;2022-08-04T09:19:35;34.90;25.80
40622;DHT22;26324;52.040;11.528;2022-08-04T09:25:12;34.90;25.60
40622;DHT22;26324;52.040;11.528;2022-08-04T09:27:54;34.80;24.50
40622;DHT22;26324;52.040;11.528;2022-08-04T09:30:44;35.00;25.50
40622;DHT22;26324;52.040;11.528;2022-08-04T09:33:31;34.80;26.20
40622;DHT22;26324;52.040;11.528;2022-08-04T09:36:09;34.90;25.90
40622;DHT22;26324;52.040;11.528;2022-08-04T09:39:36;35.00;26.30
40622;DHT22;26324;52.040;11.528;2022-08-04T09:45:23;35.30;26.10
40622;DHT22;26324;52.040;11.528;2022-08-04T09:47:59;35.20;25.90
40622;DHT22;26324;52.040;11.528;2022-08-04T09:50:37;35.40;25.40
40622;DHT22;26324;52.040;11.528;2022-08-04T10:01:41;35.60;25.40
40622;DHT22;26324;52.040;11.528;2022-08-04T10:04:11;35.90;25.70
40622;DHT22;26324;52.040;11.528;2022-08-04T10:07:08;36.00;25.50
40622;DHT22;26324;52.040;11.528;2022-08-04T10:15:39;35.90;26.00
40622;DHT22;26324;52.040;11.528;2022-08-04T10:21:25;36.20;25.40
40622;DHT22;26324;52.040;11.528;2022-08-04T10:26:50;37.00;24.80
40622;DHT22;26324;52.040;11.528;2022-08-04T10:29:35;37.00;24.40
40622;DHT22;26324;52.040;11.528;2022-08-04T10:32:22;37.00;24.80
40622;DHT22;26324;52.040;11.528;2022-08-04T10:37:31;37.30;23.20
40622;DHT22;26324;52.040;11.528;2022-08-04T10:40:04;37.30;24.60
40622;DHT22;26324;52.040;11.528;2022-08-04T10:43:01;37.60;24.00
40622;DHT22;26324;52.040;11.528;2022-08-04T10:45:35;37.70;23.10
40622;DHT22;26324;52.040;11.528;2022-08-04T10:48:10;37.70;24.40
40622;DHT22;26324;52.040;11.528;2022-08-04T10:50:48;37.70;23.10
40622;DHT22;26324;52.040;11.528;2022-08-04T10:53:22;37.60;23.80
40622;DHT22;26324;52.040;11.528;2022-08-04T10:56:17;37.50;22.20
40622;DHT22;26324;52.040;11.528;2022-08-04T10:58:49;37.30;22.70
40622;DHT22;26324;52.040;11.528;2022-08-04T11:01:30;37.50;23.30
40622;DHT22;26324;52.040;11.528;2022-08-04T11:04:07;37.20;23.50
40622;DHT22;26324;52.040;11.528;2022-08-04T11:06:35;37.20;24.10
40622;DHT22;26324;52.040;11.528;2022-08-04T11:09:21;37.20;23.60
40622;DHT22;26324;52.040;11.528;2022-08-04T11:12:46;37.70;23.80
40622;DHT22;26324;52.040;11.528;2022-08-04T11:14:58;38.30;23.40
40622;DHT22;26324;52.040;11.528;2022-08-04T11:17:31;38.30;23.20
40622;DHT22;26324;52.040;11.528;2022-08-04T11:20:24;38.00;23.80
40622;DHT22;26324;52.040;11.528;2022-08-04T11:23:13;37.80;22.40
40622;DHT22;26324;52.040;11.528;2022-08-04T11:25:52;37.80;23.70
40622;DHT22;26324;52.040;11.528;2022-08-04T11:29:04;37.80;24.30
40622;DHT22;26324;52.040;11.528;2022-08-04T11:31:38;38.10;24.10
40622;DHT22;26324;52.040;11.528;2022-08-04T11:34:22;38.40;23.40
40622;DHT22;26324;52.040;11.528;2022-08-04T11:39:33;38.30;22.70
40622;DHT22;26324;52.040;11.528;2022-08-04T11:47:27;38.10;23.80
40622;DHT22;26324;52.040;11.528;2022-08-04T11:50:20;38.40;23.60
40622;DHT22;26324;52.040;11.528;2022-08-04T11:52:47;38.50;22.50
40622;DHT22;26324;52.040;11.528;2022-08-04T11:55:16;38.30;23.00
40622;DHT22;26324;52.040;11.528;2022-08-04T11:57:46;38.30;22.70
40622;DHT22;26324;52.040;11.528;2022-08-04T12:00:14;38.20;24.10
40622;DHT22;26324;52.040;11.528;2022-08-04T12:03:03;38.40;23.10
40622;DHT22;26324;52.040;11.528;2022-08-04T12:05:42;38.50;23.60
40622;DHT22;26324;52.040;11.528;2022-08-04T12:08:35;38.60;22.90
40622;DHT22;26324;52.040;11.528;2022-08-04T12:14:28;38.60;23.10
40622;DHT22;26324;52.040;11.528;2022-08-04T12:17:03;38.70;22.80
40622;DHT22;26324;52.040;11.528;2022-08-04T12:19:56;38.90;22.00
40622;DHT22;26324;52.040;11.528;2022-08-04T12:22:24;38.80;22.50
40622;DHT22;26324;52.040;11.528;2022-08-04T12:25:00;38.80;22.20
40622;DHT22;26324;52.040;11.528;2022-08-04T12:27:32;38.90;21.70
40622;DHT22;26324;52.040;11.528;2022-08-04T12:30:00;38.80;22.70
40622;DHT22;26324;52.040;11.528;2022-08-04T12:35:54;39.10;22.10
40622;DHT22;26324;52.040;11.528;2022-08-04T12:38:25;38.90;22.80
40622;DHT22;26324;52.040;11.528;2022-08-04T12:40:54;39.00;23.30
40622;DHT22;26324;52.040;11.528;2022-08-04T12:43:38;39.50;21.90
40622;DHT22;26324;52.040;11.528;2022-08-04T12:46:09;39.60;21.80
40622;DHT22;26324;52.040;11.528;2022-08-04T12:48:36;40.00;22.00
40622;DHT22;26324;52.040;11.528;2022-08-04T12:51:04;40.20;21.90
40622;DHT22;26324;52.040;11.528;2022-08-04T12:53:35;39.90;20.90
40622;DHT22;26324;52.040;11.528;2022-08-04T12:56:02;39.60;21.10
40622;DHT22;26324;52.040;11.528;2022-08-04T12:58:32;39.90;20.60
40622;DHT22;26324;52.040;11.528;2022-08-04T13:01:06;39.70;21.20
40622;DHT22;26324;52.040;11.528;2022-08-04T13:03:51;39.80;21.80
40622;DHT22;26324;52.040;11.528;2022-08-04T13:06:24;40.20;21.60
40622;DHT22;26324;52.040;11.528;2022-08-04T13:08:52;40.70;20.70
40622;DHT22;26324;52.040;11.528;2022-08-04T13:11:20;41.10;19.30
40622;DHT22;26324;52.040;11.528;2022-08-04T13:13:46;41.40;18.30
40622;DHT22;26324;52.040;11.528;2022-08-04T13:16:13;41.20;19.40
40622;DHT22;26324;52.040;11.528;2022-08-04T13:18:45;41.00;18.80
40622;DHT22;26324;52.040;11.528;2022-08-04T13:21:16;40.60;19.60
40622;DHT22;26324;52.040;11.528;2022-08-04T13:23:43;39.90;19.60
40622;DHT22;26324;52.040;11.528;2022-08-04T13:26:15;39.60;20.00
40622;DHT22;26324;52.040;11.528;2022-08-04T13:28:45;39.10;20.70
40622;DHT22;26324;52.040;11.528;2022-08-04T13:31:15;38.90;20.50
40622;DHT22;26324;52.040;11.528;2022-08-04T13:33:43;39.60;19.90
40622;DHT22;26324;52.040;11.528;2022-08-04T13:36:10;40.40;19.20
40622;DHT22;26324;52.040;11.528;2022-08-04T13:38:44;41.00;18.60
40622;DHT22;26324;52.040;11.528;2022-08-04T13:41:10;41.40;18.30
40622;DHT22;26324;52.040;11.528;2022-08-04T13:43:44;42.60;17.50
40622;DHT22;26324;52.040;11.528;2022-08-04T13:46:21;43.20;16.70
40622;DHT22;26324;52.040;11.528;2022-08-04T13:48:48;44.00;17.10
40622;DHT22;26324;52.040;11.528;2022-08-04T13:51:17;44.20;16.40
40622;DHT22;26324;52.040;11.528;2022-08-04T13:53:44;44.00;16.30
40622;DHT22;26324;52.040;11.528;2022-08-04T13:56:20;43.50;16.40
40622;DHT22;26324;52.040;11.528;2022-08-04T13:58:48;43.40;16.80
40622;DHT22;26324;52.040;11.528;2022-08-04T14:01:22;43.10;17.00
40622;DHT22;26324;52.040;11.528;2022-08-04T14:08:57;40.70;19.10
40622;DHT22;26324;52.040;11.528;2022-08-04T14:11:34;41.50;19.70
40622;DHT22;26324;52.040;11.528;2022-08-04T14:14:24;43.40;17.30
40622;DHT22;26324;52.040;11.528;2022-08-04T14:17:10;44.80;16.00
40622;DHT22;26324;52.040;11.528;2022-08-04T14:25:08;44.00;16.20
40622;DHT22;26324;52.040;11.528;2022-08-04T14:27:42;44.80;16.30
40622;DHT22;26324;52.040;11.528;2022-08-04T14:30:29;44.50;16.00
40622;DHT22;26324;52.040;11.528;2022-08-04T14:35:20;45.70;16.10
40622;DHT22;26324;52.040;11.528;2022-08-04T14:38:00;47.00;14.80
40622;DHT22;26324;52.040;11.528;2022-08-04T14:40:28;47.00;14.60
40622;DHT22;26324;52.040;11.528;2022-08-04T14:42:54;46.50;15.60
40622;DHT22;26324;52.040;11.528;2022-08-04T14:48:01;46.50;15.20
40622;DHT22;26324;52.040;11.528;2022-08-04T14:50:45;47.80;14.00
40622;DHT22;26324;52.040;11.528;2022-08-04T14:53:18;48.00;14.20
40622;DHT22;26324;52.040;11.528;2022-08-04T14:55:48;48.30;14.40
40622;DHT22;26324;52.040;11.528;2022-08-04T14:58:20;47.50;14.30
40622;DHT22;26324;52.040;11.528;2022-08-04T15:00:46;47.10;14.40
40622;DHT22;26324;52.040;11.528;2022-08-04T15:03:12;46.40;14.90
40622;DHT22;26324;52.040;11.528;2022-08-04T15:05:41;45.40;15.90
40622;DHT22;26324;52.040;11.528;2022-08-04T15:08:07;45.80;15.20
40622;DHT22;26324;52.040;11.528;2022-08-04T15:10:34;46.80;15.00
40622;DHT22;26324;52.040;11.528;2022-08-04T15:13:02;45.90;15.00
40622;DHT22;26324;52.040;11.528;2022-08-04T15:15:28;43.50;16.70
40622;DHT22;26324;52.040;11.528;2022-08-04T15:17:54;41.30;18.50
40622;DHT22;26324;52.040;11.528;2022-08-04T15:20:20;40.30;19.50
40622;DHT22;26324;52.040;11.528;2022-08-04T15:22:47;39.50;20.40
40622;DHT22;26324;52.040;11.528;2022-08-04T15:25:13;39.10;20.80
40622;DHT22;26324;52.040;11.528;2022-08-04T15:27:40;39.80;20.30
40622;DHT22;26324;52.040;11.528;2022-08-04T15:30:08;42.00;18.50
40622;DHT22;26324;52.040;11.528;2022-08-04T15:32:39;44.60;16.20
40622;DHT22;26324;52.040;11.528;2022-08-04T15:35:11;46.30;15.50
40622;DHT22;26324;52.040;11.528;2022-08-04T15:38:02;45.70;15.00
40622;DHT22;26324;52.040;11.528;2022-08-04T15:40:38;46.00;15.20
40622;DHT22;26324;52.040;11.528;2022-08-04T15:45:55;47.10;14.20
40622;DHT22;26324;52.040;11.528;2022-08-04T15:48:30;47.20;14.20
40622;DHT22;26324;52.040;11.528;2022-08-04T15:53:31;47.30;14.60
40622;DHT22;26324;52.040;11.528;2022-08-04T15:55:56;46.50;14.60
40622;DHT22;26324;52.040;11.528;2022-08-04T15:58:23;45.90;15.20
40622;DHT22;26324;52.040;11.528;2022-08-04T16:18:54;48.00;13.90
40622;DHT22;26324;52.040;11.528;2022-08-04T16:21:28;46.50;14.80
40622;DHT22;26324;52.040;11.528;2022-08-04T16:29:28;46.50;14.80
40622;DHT22;26324;52.040;11.528;2022-08-04T16:34:36;43.80;16.70
40622;DHT22;26324;52.040;11.528;2022-08-04T16:37:08;44.70;15.70
40622;DHT22;26324;52.040;11.528;2022-08-04T16:39:39;44.50;16.20
40622;DHT22;26324;52.040;11.528;2022-08-04T16:42:32;45.10;15.70
40622;DHT22;26324;52.040;11.528;2022-08-04T16:50:20;45.30;15.80
40622;DHT22;26324;52.040;11.528;2022-08-04T16:52:48;44.90;16.30
40622;DHT22;26324;52.040;11.528;2022-08-04T16:55:17;45.00;16.00
40622;DHT22;26324;52.040;11.528;2022-08-04T16:57:54;45.30;15.50
40622;DHT22;26324;52.040;11.528;2022-08-04T17:00:36;45.60;15.60
40622;DHT22;26324;52.040;11.528;2022-08-04T17:03:04;46.00;15.20
40622;DHT22;26324;52.040;11.528;2022-08-04T17:05:31;46.20;15.20
40622;DHT22;26324;52.040;11.528;2022-08-04T17:07:59;45.80;15.50
40622;DHT22;26324;52.040;11.528;2022-08-04T17:13:18;45.60;15.30
40622;DHT22;26324;52.040;11.528;2022-08-04T17:15:49;45.80;15.40
40622;DHT22;26324;52.040;11.528;2022-08-04T17:18:16;44.90;15.80
40622;DHT22;26324;52.040;11.528;2022-08-04T17:20:43;43.80;16.60
40622;DHT22;26324;52.040;11.528;2022-08-04T17:23:28;42.60;17.50
40622;DHT22;26324;52.040;11.528;2022-08-04T17:26:00;40.80;19.00
40622;DHT22;26324;52.040;11.528;2022-08-04T17:28:26;39.70;19.90
40622;DHT22;26324;52.040;11.528;2022-08-04T17:30:54;38.80;21.10
40622;DHT22;26324;52.040;11.528;2022-08-04T17:33:20;38.10;21.70
40622;DHT22;26324;52.040;11.528;2022-08-04T17:35:57;37.50;22.50
40622;DHT22;26324;52.040;11.528;2022-08-04T17:38:29;37.30;23.30
40622;DHT22;26324;52.040;11.528;2022-08-04T17:41:00;37.10;23.20
40622;DHT22;26324;52.040;11.528;2022-08-04T17:49:00;36.50;24.00
40622;DHT22;26324;52.040;11.528;2022-08-04T17:51:40;36.50;24.20
40622;DHT22;26324;52.040;11.528;2022-08-04T17:54:08;36.50;24.00
40622;DHT22;26324;52.040;11.528;2022-08-04T18:07:21;36.20;24.70
40622;DHT22;26324;52.040;11.528;2022-08-04T18:12:27;36.00;24.80
40622;DHT22;26324;52.040;11.528;2022-08-04T18:14:56;36.00;25.10
40622;DHT22;26324;52.040;11.528;2022-08-04T18:17:48;35.90;25.60
40622;DHT22;26324;52.040;11.528;2022-08-04T18:20:16;35.50;26.40
40622;DHT22;26324;52.040;11.528;2022-08-04T18:22:47;35.10;27.50
40622;DHT22;26324;52.040;11.528;2022-08-04T18:25:14;34.70;28.30
40622;DHT22;26324;52.040;11.528;2022-08-04T18:27:48;34.30;29.40
40622;DHT22;26324;52.040;11.528;2022-08-04T18:30:15;34.10;29.70
40622;DHT22;26324;52.040;11.528;2022-08-04T18:32:41;34.00;30.00
40622;DHT22;26324;52.040;11.528;2022-08-04T18:35:07;34.00;30.10
40622;DHT22;26324;52.040;11.528;2022-08-04T18:37:36;33.90;30.30
40622;DHT22;26324;52.040;11.528;2022-08-04T18:40:03;33.80;30.60
40622;DHT22;26324;52.040;11.528;2022-08-04T18:42:32;33.70;30.60
40622;DHT22;26324;52.040;11.528;2022-08-04T18:44:59;33.60;30.90
40622;DHT22;26324;52.040;11.528;2022-08-04T18:47:25;33.40;31.60
40622;DHT22;26324;52.040;11.528;2022-08-04T18:49:54;33.30;31.60
40622;DHT22;26324;52.040;11.528;2022-08-04T18:52:21;33.10;31.90
40622;DHT22;26324;52.040;11.528;2022-08-04T18:54:47;32.90;32.20
40622;DHT22;26324;52.040;11.528;2022-08-04T18:57:25;32.80;32.20
40622;DHT22;26324;52.040;11.528;2022-08-04T18:59:53;32.80;32.40
40622;DHT22;26324;52.040;11.528;2022-08-04T19:02:25;32.60;32.70
40622;DHT22;26324;52.040;11.528;2022-08-04T19:04:50;32.60;33.50
40622;DHT22;26324;52.040;11.528;2022-08-04T19:07:16;32.60;33.30
40622;DHT22;26324;52.040;11.528;2022-08-04T19:09:42;32.40;33.50
40622;DHT22;26324;52.040;11.528;2022-08-04T19:12:09;32.10;34.00
40622;DHT22;26324;52.040;11.528;2022-08-04T19:14:35;32.00;34.70
40622;DHT22;26324;52.040;11.528;2022-08-04T19:17:02;31.90;35.70
40622;DHT22;26324;52.040;11.528;2022-08-04T19:19:28;31.80;34.40
40622;DHT22;26324;52.040;11.528;2022-08-04T19:21:54;31.60;34.50
40622;DHT22;26324;52.040;11.528;2022-08-04T19:24:20;31.50;34.70
40622;DHT22;26324;52.040;11.528;2022-08-04T19:26:45;31.50;35.10
40622;DHT22;26324;52.040;11.528;2022-08-04T19:29:11;31.40;35.30
40622;DHT22;26324;52.040;11.528;2022-08-04T19:31:37;31.40;35.60
40622;DHT22;26324;52.040;11.528;2022-08-04T19:34:08;31.30;36.00
40622;DHT22;26324;52.040;11.528;2022-08-04T19:36:34;31.10;36.10
40622;DHT22;26324;52.040;11.528;2022-08-04T19:39:03;31.10;37.00
40622;DHT22;26324;52.040;11.528;2022-08-04T19:41:36;31.00;37.40
40622;DHT22;26324;52.040;11.528;2022-08-04T19:44:10;30.90;36.60
40622;DHT22;26324;52.040;11.528;2022-08-04T19:46:36;30.70;37.00
40622;DHT22;26324;52.040;11.528;2022-08-04T19:49:02;30.70;37.20
40622;DHT22;26324;52.040;11.528;2022-08-04T19:51:28;30.60;37.40
40622;DHT22;26324;52.040;11.528;2022-08-04T19:54:04;30.40;37.80
40622;DHT22;26324;52.040;11.528;2022-08-04T19:56:30;30.20;38.20
40622;DHT22;26324;52.040;11.528;2022-08-04T19:58:56;30.10;38.60
40622;DHT22;26324;52.040;11.528;2022-08-04T20:01:24;30.10;39.30
40622;DHT22;26324;52.040;11.528;2022-08-04T20:03:52;30.00;38.70
40622;DHT22;26324;52.040;11.528;2022-08-04T20:06:18;30.00;39.00
40622;DHT22;26324;52.040;11.528;2022-08-04T20:08:43;29.90;39.10
40622;DHT22;26324;52.040;11.528;2022-08-04T20:11:16;29.80;39.20
40622;DHT22;26324;52.040;11.528;2022-08-04T20:13:46;29.50;40.00
40622;DHT22;26324;52.040;11.528;2022-08-04T20:16:12;29.20;40.50
40622;DHT22;26324;52.040;11.528;2022-08-04T20:18:37;29.10;40.80
40622;DHT22;26324;52.040;11.528;2022-08-04T20:21:03;29.00;41.30